createdAt,value
2019-04-14T00:00:44.744Z,57.36
2019-04-14T00:03:34.740Z,57.47
2019-04-14T00:06:06.960Z,57.51
2019-04-14T00:08:39.458Z,57.69
2019-04-14T00:11:10.420Z,57.77
2019-04-14T00:13:39.933Z,57.74
2019-04-14T00:16:09.659Z,57.64
2019-04-14T00:18:40.432Z,57.57
2019-04-14T00:21:15.304Z,57.69
2019-04-14T00:23:46.400Z,57.77
2019-04-14T00:26:38.481Z,58.17
2019-04-14T00:29:15.214Z,58.26
2019-04-14T00:31:47.913Z,58.58
2019-04-14T00:34:37.635Z,58.63
2019-04-14T00:37:37.960Z,59.09
2019-04-14T00:40:19.357Z,59.34
2019-04-14T00:42:58.196Z,59.76
2019-04-14T00:45:41.462Z,59.48
2019-04-14T00:48:16.167Z,59.33
2019-04-14T00:50:47.308Z,59.21
2019-04-14T00:53:20.786Z,59.02
2019-04-14T00:55:59.822Z,58.98
2019-04-14T00:58:43.153Z,58.85
2019-04-14T01:01:28.637Z,59.03
2019-04-14T01:04:01.677Z,59.06
2019-04-14T01:07:08.637Z,59.19
2019-04-14T01:09:39.097Z,58.95
2019-04-14T01:12:13.395Z,58.92
2019-04-14T01:14:54.574Z,58.79
2019-04-14T01:17:24.452Z,59.41
2019-04-14T01:19:59.287Z,59.16
2019-04-14T01:23:04.249Z,59.96
2019-04-14T01:25:37.341Z,59.61
2019-04-14T01:28:12.080Z,60.28
2019-04-14T01:30:48.046Z,60.43
2019-04-14T01:33:18.325Z,60.90
2019-04-14T01:35:48.913Z,60.85
2019-04-14T01:38:19.038Z,60.92
2019-04-14T01:41:10.664Z,60.35
2019-04-14T01:43:40.670Z,60.42
2019-04-14T01:46:24.683Z,60.40
2019-04-14T01:48:51.921Z,60.52
2019-04-14T01:51:37.512Z,60.52
2019-04-14T01:54:21.968Z,60.93
2019-04-14T01:57:30.961Z,60.43
2019-04-14T02:00:45.002Z,60.51
2019-04-14T02:03:28.177Z,60.68
2019-04-14T02:06:11.561Z,60.75
2019-04-14T02:09:21.479Z,60.63
2019-04-14T02:12:17.325Z,61.19
2019-04-14T02:15:13.307Z,60.53
2019-04-14T02:17:48.310Z,61.62
2019-04-14T02:20:38.119Z,62.33
2019-04-14T02:23:47.549Z,62.81
2019-04-14T02:26:33.356Z,62.90
2019-04-14T02:29:14.838Z,63.71
2019-04-14T02:32:25.321Z,64.89
2019-04-14T02:35:00.229Z,63.55
2019-04-14T02:37:34.575Z,62.92
2019-04-14T02:40:21.697Z,62.85
2019-04-14T02:43:13.012Z,63.30
2019-04-14T02:45:33.161Z,63.62
2019-04-14T02:48:03.827Z,64.27
2019-04-14T02:50:24.364Z,63.98
2019-04-14T02:53:13.065Z,64.12
2019-04-14T02:55:46.813Z,64.63
2019-04-14T02:58:23.292Z,64.59
2019-04-14T03:03:41.379Z,64.89
2019-04-14T03:06:14.605Z,64.63
2019-04-14T03:08:50.802Z,64.47
2019-04-14T03:11:18.675Z,64.49
2019-04-14T03:13:51.095Z,66.14
2019-04-14T03:16:58.315Z,64.97
2019-04-14T03:19:56.539Z,66.68
2019-04-14T03:22:45.450Z,64.75
2019-04-14T03:25:30.060Z,65.97
2019-04-14T03:39:18.772Z,66.51
2019-04-14T03:44:33.149Z,68.15
2019-04-14T03:46:58.195Z,68.05
2019-04-14T03:49:32.106Z,68.20
2019-04-14T03:55:01.048Z,67.14
2019-04-14T03:57:19.419Z,67.14
2019-04-14T03:59:56.277Z,68.49
2019-04-14T04:02:31.551Z,67.56
2019-04-14T04:05:04.196Z,69.18
2019-04-14T04:07:34.381Z,68.40
2019-04-14T04:10:15.866Z,68.53
2019-04-14T04:12:46.999Z,68.98
2019-04-14T04:15:21.401Z,68.68
2019-04-14T04:18:04.817Z,68.81
2019-04-14T04:21:05.330Z,68.20
2019-04-14T04:24:27.826Z,67.13
2019-04-14T04:27:28.919Z,67.11
2019-04-14T04:30:12.370Z,66.40
2019-04-14T04:33:24.230Z,66.28
2019-04-14T04:36:01.091Z,65.85
2019-04-14T04:39:04.001Z,65.24
2019-04-14T04:41:33.978Z,65.07
2019-04-14T04:44:11.682Z,64.99
2019-04-14T04:46:48.355Z,64.96
2019-04-14T04:49:21.787Z,64.76
2019-04-14T04:51:49.059Z,64.62
2019-04-14T04:54:27.924Z,64.55
2019-04-14T04:56:58.028Z,64.46
2019-04-14T04:59:32.117Z,64.11
2019-04-14T05:02:02.651Z,64.10
2019-04-14T05:04:41.630Z,64.00
2019-04-14T05:07:17.038Z,63.82
2019-04-14T05:10:06.870Z,63.57
2019-04-14T05:13:09.400Z,63.49
2019-04-14T05:15:53.216Z,63.33
2019-04-14T05:18:29.099Z,62.98
2019-04-14T05:20:59.523Z,62.36
2019-04-14T05:23:29.943Z,62.36
2019-04-14T05:26:00.574Z,62.26
2019-04-14T05:28:31.009Z,62.26
2019-04-14T05:31:01.234Z,62.22
2019-04-14T05:33:38.925Z,62.10
2019-04-14T05:36:08.662Z,62.06
2019-04-14T05:38:44.926Z,62.06
2019-04-14T05:41:18.002Z,62.51
2019-04-14T05:43:57.060Z,62.77
2019-04-14T05:46:25.170Z,62.73
2019-04-14T05:48:55.784Z,62.64
2019-04-14T05:51:26.399Z,62.64
2019-04-14T05:53:58.974Z,62.84
2019-04-14T05:56:29.539Z,62.64
2019-04-14T05:59:00.054Z,62.59
2019-04-14T06:01:31.573Z,62.25
2019-04-14T06:04:02.447Z,62.12
2019-04-14T06:06:32.089Z,62.12
2019-04-14T06:09:01.581Z,61.65
2019-04-14T06:11:31.039Z,61.65
2019-04-14T06:14:00.427Z,61.13
2019-04-14T06:16:29.903Z,60.75
2019-04-14T06:18:59.334Z,59.82
2019-04-14T06:21:28.794Z,59.82
2019-04-14T06:23:58.543Z,60.22
2019-04-14T06:26:28.253Z,59.91
2019-04-14T06:28:57.661Z,59.98
2019-04-14T06:31:34.964Z,59.32
2019-04-14T06:34:09.162Z,59.31
2019-04-14T06:37:07.582Z,58.83
2019-04-14T06:39:40.432Z,58.76
2019-04-14T06:42:10.013Z,58.22
2019-04-14T06:44:39.555Z,58.17
2019-04-14T06:47:09.127Z,58.02
2019-04-14T06:49:48.379Z,57.78
2019-04-14T06:52:12.578Z,57.56
2019-04-14T06:54:42.208Z,57.42
2019-04-14T06:57:11.603Z,56.88
2019-04-14T06:59:41.494Z,57.10
2019-04-14T07:02:11.062Z,56.42
2019-04-14T07:04:40.503Z,56.42
2019-04-14T07:07:10.169Z,55.61
2019-04-14T07:09:39.667Z,55.06
2019-04-14T07:12:09.191Z,55.21
2019-04-14T07:14:39.375Z,54.23
2019-04-14T07:17:08.850Z,54.34
2019-04-14T07:19:38.327Z,54.25
2019-04-14T07:22:07.820Z,54.25
2019-04-14T07:24:37.726Z,53.30
2019-04-14T07:27:07.120Z,52.66
2019-04-14T07:29:46.244Z,52.51
2019-04-14T07:32:47.229Z,52.47
2019-04-14T07:35:35.124Z,51.74
2019-04-14T07:38:15.613Z,51.78
2019-04-14T07:41:08.130Z,51.93
2019-04-14T07:43:54.063Z,50.96
2019-04-14T07:46:43.830Z,50.94
2019-04-14T07:49:32.841Z,50.23
2019-04-14T07:52:20.391Z,49.48
2019-04-14T07:55:17.029Z,49.15
2019-04-14T07:57:58.032Z,49.07
2019-04-14T08:00:36.751Z,49.40
2019-04-14T08:03:10.658Z,49.20
2019-04-14T08:05:44.017Z,49.30
2019-04-14T08:08:16.758Z,48.40
2019-04-14T08:10:46.314Z,48.33
2019-04-14T08:13:15.957Z,46.94
2019-04-14T08:15:45.364Z,47.39
2019-04-14T08:18:15.213Z,47.05
2019-04-14T08:20:46.228Z,47.17
2019-04-14T08:23:15.808Z,47.03
2019-04-14T08:25:48.289Z,47.12
2019-04-14T08:28:17.682Z,46.70
2019-04-14T08:30:47.230Z,46.35
2019-04-14T08:33:16.897Z,46.57
2019-04-14T08:35:46.628Z,46.36
2019-04-14T08:38:16.577Z,46.19
2019-04-14T08:40:46.251Z,45.19
2019-04-14T08:43:34.463Z,43.81
2019-04-14T08:46:28.576Z,43.18
2019-04-14T08:49:07.390Z,43.30
2019-04-14T08:51:42.627Z,42.86
2019-04-14T08:54:36.947Z,41.77
2019-04-14T08:57:34.398Z,41.44
2019-04-14T09:00:32.054Z,40.40
2019-04-14T09:03:23.252Z,40.52
2019-04-14T09:06:10.258Z,39.98
2019-04-14T09:08:53.344Z,39.53
2019-04-14T09:11:28.983Z,39.99
2019-04-14T09:14:10.155Z,40.47
2019-04-14T09:16:31.043Z,40.15
2019-04-14T09:19:07.387Z,40.01
2019-04-14T09:21:31.588Z,40.21
2019-04-14T09:24:00.967Z,39.47
2019-04-14T09:26:30.428Z,39.80
2019-04-14T09:29:00.239Z,39.81
2019-04-14T09:31:29.824Z,40.08
2019-04-14T09:33:59.268Z,40.03
2019-04-14T09:36:28.775Z,39.97
2019-04-14T09:38:58.312Z,39.75
2019-04-14T09:41:27.715Z,39.38
2019-04-14T09:43:57.163Z,39.62
2019-04-14T09:46:26.571Z,39.72
2019-04-14T09:48:56.044Z,39.98
2019-04-14T09:51:25.574Z,39.32
2019-04-14T09:53:55.110Z,39.62
2019-04-14T09:56:24.550Z,39.14
2019-04-14T09:58:54.212Z,38.62
2019-04-14T10:01:27.611Z,38.38
2019-04-14T10:03:57.084Z,38.64
2019-04-14T10:06:26.670Z,38.43
2019-04-14T10:08:56.372Z,38.71
2019-04-14T10:11:25.935Z,38.26
2019-04-14T10:13:55.427Z,38.04
2019-04-14T10:16:25.064Z,38.13
2019-04-14T10:18:54.555Z,37.89
2019-04-14T10:21:24.217Z,37.68
2019-04-14T10:23:53.587Z,37.41
2019-04-14T10:26:23.074Z,37.09
2019-04-14T10:28:53.123Z,36.86
2019-04-14T10:31:22.579Z,36.15
2019-04-14T10:33:52.382Z,35.93
2019-04-14T10:36:21.891Z,35.65
2019-04-14T10:38:51.587Z,35.59
2019-04-14T10:41:21.094Z,35.64
2019-04-14T10:43:50.623Z,35.83
2019-04-14T10:46:20.062Z,36.17
2019-04-14T10:48:49.992Z,36.26
2019-04-14T10:51:29.464Z,36.78
2019-04-14T10:53:51.094Z,37.19
2019-04-14T10:56:20.685Z,37.72
2019-04-14T10:58:50.173Z,37.92
2019-04-14T11:01:19.733Z,37.95
2019-04-14T11:03:50.516Z,38.14
2019-04-14T11:06:30.259Z,37.94
2019-04-14T11:08:59.627Z,37.89
2019-04-14T11:11:29.109Z,37.94
2019-04-14T11:13:58.547Z,37.53
2019-04-14T11:16:27.906Z,37.45
2019-04-14T11:18:59.326Z,37.94
2019-04-14T11:21:41.612Z,38.13
2019-04-14T11:24:00.566Z,38.38
2019-04-14T11:26:30.067Z,38.50
2019-04-14T11:28:59.731Z,38.26
2019-04-14T11:32:03.239Z,37.83
2019-04-14T11:34:41.341Z,37.87
2019-04-14T11:37:29.350Z,37.90
2019-04-14T11:39:59.053Z,37.49
2019-04-14T11:42:28.460Z,37.16
2019-04-14T11:44:58.244Z,36.79
2019-04-14T11:47:27.938Z,36.84
2019-04-14T11:49:59.225Z,35.87
2019-04-14T11:52:28.662Z,35.36
2019-04-14T11:54:59.360Z,35.26
2019-04-14T11:57:28.914Z,34.94
2019-04-14T12:00:15.426Z,34.94
2019-04-14T12:03:16.559Z,34.66
2019-04-14T12:06:26.524Z,34.44
2019-04-14T12:09:26.999Z,34.70
2019-04-14T12:11:56.573Z,35.29
2019-04-14T12:14:26.128Z,35.78
2019-04-14T12:16:55.564Z,35.99
2019-04-14T12:19:25.162Z,35.66
2019-04-14T12:22:07.434Z,35.79
2019-04-14T12:24:25.728Z,35.92
2019-04-14T12:26:55.947Z,35.68
2019-04-14T12:29:26.130Z,35.70
2019-04-14T12:31:55.838Z,34.88
2019-04-14T12:34:25.482Z,34.85
2019-04-14T12:36:55.288Z,34.61
2019-04-14T12:39:25.532Z,34.28
2019-04-14T12:42:12.455Z,33.81
2019-04-14T12:45:01.780Z,33.87
2019-04-14T12:47:41.795Z,34.09
2019-04-14T12:50:34.173Z,34.08
2019-04-14T12:53:03.708Z,34.16
2019-04-14T12:55:33.146Z,33.67
2019-04-14T12:58:04.294Z,33.30
2019-04-14T13:00:49.352Z,33.51
2019-04-14T13:03:18.944Z,33.44
2019-04-14T13:05:48.503Z,33.36
2019-04-14T13:08:17.935Z,33.21
2019-04-14T13:10:47.409Z,33.44
2019-04-14T13:13:16.967Z,33.55
2019-04-14T13:15:46.525Z,33.49
2019-04-14T13:18:15.971Z,33.49
2019-04-14T13:20:45.455Z,33.63
2019-04-14T13:23:15.086Z,33.53
2019-04-14T13:25:44.595Z,33.71
2019-04-14T13:28:14.198Z,33.33
2019-04-14T13:30:46.857Z,33.76
2019-04-14T13:33:16.424Z,33.47
2019-04-14T13:35:46.255Z,33.43
2019-04-14T13:38:17.271Z,33.42
2019-04-14T13:40:46.948Z,33.65
2019-04-14T13:43:19.333Z,33.49
2019-04-14T13:45:49.006Z,33.47
2019-04-14T13:48:18.388Z,32.95
2019-04-14T13:50:48.235Z,33.10
2019-04-14T13:53:17.680Z,33.13
2019-04-14T13:55:47.747Z,33.16
2019-04-14T13:58:17.271Z,33.43
2019-04-14T14:00:47.227Z,33.59
2019-04-14T14:03:16.690Z,33.10
2019-04-14T14:05:55.819Z,32.76
2019-04-14T14:08:25.307Z,33.02
2019-04-14T14:10:58.055Z,33.08
2019-04-14T14:13:39.198Z,33.06
2019-04-14T14:16:39.718Z,33.01
2019-04-14T14:19:23.002Z,32.65
2019-04-14T14:22:15.039Z,33.28
2019-04-14T14:24:52.536Z,33.72
2019-04-14T14:27:21.984Z,33.90
2019-04-14T14:29:51.367Z,33.93
2019-04-14T14:32:32.412Z,34.33
2019-04-14T14:35:01.997Z,34.09
2019-04-14T14:37:32.555Z,33.74
2019-04-14T14:40:02.049Z,33.65
2019-04-14T14:42:31.517Z,33.84
2019-04-14T14:45:20.175Z,34.20
2019-04-14T14:48:09.530Z,34.34
2019-04-14T14:50:47.532Z,34.61
2019-04-14T14:53:16.956Z,34.43
2019-04-14T14:55:46.384Z,34.71
2019-04-14T14:58:16.025Z,34.62
2019-04-14T15:00:45.439Z,34.74
2019-04-14T15:03:14.840Z,34.90
2019-04-14T15:05:44.462Z,34.66
2019-04-14T15:08:14.073Z,34.69
2019-04-14T15:10:43.475Z,34.96
2019-04-14T15:13:13.019Z,35.14
2019-04-14T15:15:42.700Z,35.12
2019-04-14T15:18:12.327Z,34.87
2019-04-14T15:20:41.937Z,34.82
2019-04-14T15:23:24.017Z,34.62
2019-04-14T15:25:42.569Z,34.66
2019-04-14T15:28:12.119Z,34.08
2019-04-14T15:30:41.516Z,34.15
2019-04-14T15:33:10.914Z,34.01
2019-04-14T15:35:40.470Z,34.13
2019-04-14T15:38:10.185Z,34.17
2019-04-14T15:40:42.076Z,34.12
2019-04-14T15:43:11.461Z,34.05
2019-04-14T15:45:40.932Z,34.30
2019-04-14T15:48:10.370Z,34.14
2019-04-14T15:50:40.278Z,33.88
2019-04-14T15:53:09.754Z,33.75
2019-04-14T15:55:39.219Z,32.80
2019-04-14T15:58:18.965Z,32.00
2019-04-14T16:01:10.270Z,31.58
2019-04-14T16:03:45.390Z,31.54
2019-04-14T16:06:41.725Z,30.86
2019-04-14T16:09:33.124Z,30.54
2019-04-14T16:12:16.288Z,30.33
2019-04-14T16:15:14.211Z,30.34
2019-04-14T16:18:02.437Z,30.08
2019-04-14T16:20:34.229Z,29.89
2019-04-14T16:23:03.693Z,29.53
2019-04-14T16:26:02.187Z,29.35
2019-04-14T16:28:53.590Z,28.86
2019-04-14T16:31:40.549Z,28.73
2019-04-14T16:34:16.308Z,29.30
2019-04-14T16:36:46.670Z,29.44
2019-04-14T16:39:16.212Z,29.55
2019-04-14T16:41:46.201Z,29.34
2019-04-14T16:44:15.726Z,28.99
2019-04-14T16:46:45.256Z,28.90
2019-04-14T16:49:14.811Z,28.95
2019-04-14T16:52:12.189Z,28.97
2019-04-14T16:54:56.729Z,29.08
2019-04-14T16:57:43.721Z,29.22
2019-04-14T17:00:16.660Z,29.23
2019-04-14T17:02:50.245Z,29.12
2019-04-14T17:05:19.731Z,29.24
2019-04-14T17:07:49.138Z,29.27
2019-04-14T17:10:18.541Z,29.03
2019-04-14T17:12:48.063Z,29.70
2019-04-14T17:15:30.543Z,30.51
2019-04-14T17:18:18.640Z,31.77
2019-04-14T17:21:16.081Z,32.92
2019-04-14T17:23:54.056Z,33.90
2019-04-14T17:26:33.321Z,34.75
2019-04-14T17:29:21.740Z,35.31
2019-04-14T17:32:25.382Z,35.92
2019-04-14T17:35:12.644Z,36.40
2019-04-14T17:38:03.858Z,36.95
2019-04-14T17:40:51.314Z,37.27
2019-04-14T17:43:28.905Z,37.65
2019-04-14T17:46:17.255Z,37.97
2019-04-14T17:49:05.669Z,37.92
2019-04-14T17:51:50.636Z,37.66
2019-04-14T17:54:35.487Z,37.69
2019-04-14T17:57:23.779Z,37.87
2019-04-14T18:00:04.243Z,38.06
2019-04-14T18:02:52.457Z,38.34
2019-04-14T18:05:40.803Z,38.69
2019-04-14T18:08:32.707Z,39.15
2019-04-14T18:11:07.780Z,39.49
2019-04-14T18:14:02.402Z,39.77
2019-04-14T18:16:36.054Z,40.14
2019-04-14T18:19:12.671Z,40.45
2019-04-14T18:21:44.305Z,40.82
2019-04-14T18:24:13.454Z,40.83
2019-04-14T18:26:42.820Z,41.21
2019-04-14T18:29:46.397Z,41.64
2019-04-14T18:32:29.863Z,41.93
2019-04-14T18:35:20.571Z,42.19
2019-04-14T18:38:13.923Z,42.07
2019-04-14T18:41:01.789Z,42.55
2019-04-14T18:43:56.453Z,42.95
2019-04-14T18:46:56.782Z,43.46
2019-04-14T18:49:44.034Z,44.07
2019-04-14T18:52:35.510Z,44.07
2019-04-14T18:55:30.315Z,44.25
2019-04-14T18:58:36.325Z,44.47
2019-04-14T19:01:11.600Z,44.66
2019-04-14T19:03:41.107Z,44.94
2019-04-14T19:06:10.565Z,44.91
2019-04-14T19:08:39.944Z,45.21
2019-04-14T19:11:26.242Z,45.00
2019-04-14T19:13:57.461Z,45.14
2019-04-14T19:16:39.606Z,45.44
2019-04-14T19:19:05.146Z,45.64
2019-04-14T19:21:34.533Z,45.84
2019-04-14T19:24:03.975Z,45.82
2019-04-14T19:26:33.345Z,46.11
2019-04-14T19:29:03.238Z,46.30
2019-04-14T19:31:32.686Z,46.60
2019-04-14T19:34:02.630Z,46.34
2019-04-14T19:36:32.025Z,46.81
2019-04-14T19:39:01.477Z,46.84
2019-04-14T19:41:32.566Z,46.55
2019-04-14T19:44:02.443Z,46.58
2019-04-14T19:46:31.855Z,47.23
2019-04-14T19:49:01.244Z,47.20
2019-04-14T19:51:30.693Z,46.88
2019-04-14T19:54:00.394Z,47.43
2019-04-14T19:56:29.967Z,47.75
2019-04-14T19:59:06.383Z,47.60
2019-04-14T20:01:35.862Z,47.63
2019-04-14T20:04:05.285Z,47.96
2019-04-14T20:06:36.201Z,48.27
2019-04-14T20:09:07.129Z,47.90
2019-04-14T20:11:36.689Z,48.70
2019-04-14T20:14:06.126Z,48.70
2019-04-14T20:17:13.025Z,48.74
2019-04-14T20:19:59.877Z,48.87
2019-04-14T20:22:48.274Z,49.53
2019-04-14T20:25:41.283Z,49.75
2019-04-14T20:28:16.958Z,49.75
2019-04-14T20:30:49.821Z,50.09
2019-04-14T20:33:19.370Z,50.09
2019-04-14T20:35:48.897Z,50.60
2019-04-14T20:38:18.353Z,50.88
2019-04-14T20:40:48.363Z,50.88
2019-04-14T20:43:17.772Z,50.69
2019-04-14T20:45:47.429Z,50.69
2019-04-14T20:48:17.004Z,51.57
2019-04-14T20:50:46.444Z,52.14
2019-04-14T20:53:18.522Z,52.91
2019-04-14T20:55:47.971Z,52.99
2019-04-14T20:58:17.408Z,52.99
2019-04-14T21:00:49.405Z,52.95
2019-04-14T21:03:40.841Z,52.95
2019-04-14T21:06:29.299Z,52.50
2019-04-14T21:09:19.389Z,52.50
2019-04-14T21:12:16.711Z,53.19
2019-04-14T21:14:54.968Z,53.19
2019-04-14T21:17:41.282Z,53.44
2019-04-14T21:20:27.941Z,53.70
2019-04-14T21:23:32.950Z,54.16
2019-04-14T21:26:16.693Z,54.67
2019-04-14T21:29:02.351Z,54.67
2019-04-14T21:31:39.065Z,54.69
2019-04-14T21:34:16.996Z,54.63
2019-04-14T21:36:55.264Z,55.19
2019-04-14T21:39:40.386Z,55.41
2019-04-14T21:42:09.637Z,55.59
2019-04-14T21:44:48.784Z,55.55
2019-04-14T21:47:20.921Z,55.57
2019-04-14T21:49:58.290Z,55.39
2019-04-14T21:52:49.857Z,55.60
2019-04-14T21:55:32.049Z,56.08
2019-04-14T21:58:25.529Z,56.09
2019-04-14T22:01:44.559Z,56.62
2019-04-14T22:04:35.703Z,57.25
2019-04-14T22:07:26.811Z,56.97
2019-04-14T22:10:00.504Z,57.10
2019-04-14T22:12:40.056Z,57.22
2019-04-14T22:15:17.958Z,57.26
2019-04-14T22:17:47.410Z,57.46
2019-04-14T22:20:19.226Z,57.36
2019-04-14T22:22:48.712Z,57.57
2019-04-14T22:25:25.757Z,58.10
2019-04-14T22:27:55.267Z,58.61
2019-04-14T22:30:24.958Z,58.22
2019-04-14T22:32:54.363Z,58.11
2019-04-14T22:35:33.356Z,58.70
2019-04-14T22:38:02.710Z,58.97
2019-04-14T22:40:35.130Z,59.70
2019-04-14T22:43:05.752Z,59.61
2019-04-14T22:46:11.974Z,59.37
2019-04-14T22:48:39.489Z,59.95
2019-04-14T22:51:09.089Z,60.43
2019-04-14T22:54:22.779Z,60.41
2019-04-14T22:56:39.050Z,60.53
2019-04-14T22:59:04.461Z,60.21
2019-04-14T23:01:39.573Z,60.84
2019-04-14T23:04:46.363Z,60.96
2019-04-14T23:07:51.608Z,60.66
2019-04-14T23:10:53.793Z,61.06
2019-04-14T23:14:19.284Z,61.19
2019-04-14T23:17:06.861Z,61.34
2019-04-14T23:19:49.603Z,61.75
2019-04-14T23:22:43.315Z,61.37
2019-04-14T23:25:46.991Z,61.42
2019-04-14T23:28:55.907Z,61.57
2019-04-14T23:31:27.334Z,61.78
2019-04-14T23:34:15.139Z,62.09
2019-04-14T23:36:51.247Z,61.94
2019-04-14T23:39:22.700Z,62.01
2019-04-14T23:41:52.989Z,62.23
2019-04-14T23:44:31.348Z,62.51
2019-04-14T23:47:01.054Z,63.04
2019-04-14T23:49:51.245Z,62.75
